createdAt,value
2019-05-03T00:02:28.995Z,100472.73
2019-05-03T00:05:32.454Z,100471.75
2019-05-03T00:08:08.061Z,100455.77
2019-05-03T00:10:42.520Z,100454.58
2019-05-03T00:13:15.447Z,100447.33
2019-05-03T00:16:09.892Z,100445.92
2019-05-03T00:18:42.937Z,100440.67
2019-05-03T00:21:15.845Z,100442.59
2019-05-03T00:23:48.388Z,100437.36
2019-05-03T00:26:22.564Z,100432.69
2019-05-03T00:28:56.083Z,100428.03
2019-05-03T00:31:28.406Z,100430.97
2019-05-03T00:34:05.374Z,100427.11
2019-05-03T00:36:52.499Z,100427.72
2019-05-03T00:39:38.783Z,100428.52
2019-05-03T00:42:11.949Z,100423.50
2019-05-03T00:44:44.550Z,100407.01
2019-05-03T00:47:16.929Z,100392.56
2019-05-03T00:49:49.534Z,100385.38
2019-05-03T00:52:22.466Z,100390.89
2019-05-03T00:54:55.520Z,100391.30
2019-05-03T00:57:32.100Z,100398.78
2019-05-03T01:00:04.771Z,100403.83
2019-05-03T01:02:37.676Z,100398.27
2019-05-03T01:05:11.990Z,100407.55
2019-05-03T01:07:44.724Z,100424.08
2019-05-03T01:10:17.528Z,100429.16
2019-05-03T01:12:52.141Z,100418.80
2019-05-03T01:15:31.982Z,100422.63
2019-05-03T01:18:07.894Z,100422.69
2019-05-03T01:20:42.633Z,100422.16
2019-05-03T01:23:15.089Z,100412.98
2019-05-03T01:25:48.954Z,100421.64
2019-05-03T01:28:21.866Z,100414.00
2019-05-03T01:30:55.309Z,100412.38
2019-05-03T01:33:27.853Z,100421.42
2019-05-03T01:36:02.511Z,100429.42
2019-05-03T01:38:34.863Z,100429.42
2019-05-03T01:41:07.477Z,100430.61
2019-05-03T01:43:41.503Z,100424.98
2019-05-03T01:46:14.261Z,100411.48
2019-05-03T01:49:12.309Z,100400.84
2019-05-03T01:52:03.643Z,100406.47
2019-05-03T01:54:36.503Z,100413.66
2019-05-03T01:57:09.073Z,100422.69
2019-05-03T01:59:42.604Z,100429.36
2019-05-03T02:02:41.972Z,100425.27
2019-05-03T02:05:42.944Z,100424.86
2019-05-03T02:08:15.755Z,100432.19
2019-05-03T02:10:48.244Z,100453.01
2019-05-03T02:13:42.663Z,100459.38
2019-05-03T02:16:15.516Z,100457.33
2019-05-03T02:18:48.392Z,100462.52
2019-05-03T02:21:21.666Z,100467.30
2019-05-03T02:23:54.278Z,100461.68
2019-05-03T02:26:26.811Z,100460.21
2019-05-03T02:28:59.598Z,100467.02
2019-05-03T02:31:33.959Z,100466.44
2019-05-03T02:34:06.833Z,100473.25
2019-05-03T02:36:42.539Z,100476.77
2019-05-03T02:39:15.855Z,100480.77
2019-05-03T02:41:51.795Z,100481.88
2019-05-03T02:44:26.685Z,100485.23
2019-05-03T02:47:15.764Z,100495.36
2019-05-03T02:49:51.878Z,100503.15
2019-05-03T02:52:37.679Z,100506.69
2019-05-03T02:55:15.643Z,100496.02
2019-05-03T02:57:46.934Z,100488.35
2019-05-03T03:00:25.500Z,100493.97
2019-05-03T03:02:57.739Z,100506.17
2019-05-03T03:05:30.941Z,100511.57
2019-05-03T03:08:06.034Z,100515.72
2019-05-03T03:10:39.302Z,100521.72
2019-05-03T03:13:16.315Z,100526.89
2019-05-03T03:15:51.521Z,100520.37
2019-05-03T03:18:25.677Z,100511.86
2019-05-03T03:21:01.484Z,100515.40
2019-05-03T03:23:41.506Z,100513.77
2019-05-03T03:26:33.358Z,100511.49
2019-05-03T03:28:57.257Z,100508.95
2019-05-03T03:31:59.555Z,100507.93
2019-05-03T03:34:39.136Z,100510.52
2019-05-03T03:37:15.352Z,100510.44
2019-05-03T03:39:48.267Z,100510.44
2019-05-03T03:42:25.137Z,100504.82
2019-05-03T03:44:57.998Z,100504.44
2019-05-03T03:47:35.802Z,100511.70
2019-05-03T03:50:09.236Z,100513.93
2019-05-03T03:52:45.156Z,100506.30
2019-05-03T03:55:17.805Z,100506.15
2019-05-03T03:57:50.234Z,100518.79
2019-05-03T04:00:25.510Z,100516.44
2019-05-03T04:02:57.278Z,100511.84
2019-05-03T04:05:29.752Z,100511.95
2019-05-03T04:08:05.383Z,100513.55
2019-05-03T04:10:37.911Z,100514.00
2019-05-03T04:13:12.752Z,100509.73
2019-05-03T04:16:09.895Z,100509.42
2019-05-03T04:19:05.829Z,100507.13
2019-05-03T04:21:37.834Z,100512.82
2019-05-03T04:24:10.995Z,100511.48
2019-05-03T04:26:45.355Z,100508.77
2019-05-03T04:29:18.009Z,100520.89
2019-05-03T04:31:50.929Z,100519.20
2019-05-03T04:34:26.137Z,100533.17
2019-05-03T04:36:58.190Z,100532.09
2019-05-03T04:39:30.772Z,100532.83
2019-05-03T04:42:06.292Z,100534.36
2019-05-03T04:44:37.721Z,100533.24
2019-05-03T04:47:10.244Z,100541.68
2019-05-03T04:49:45.981Z,100533.14
2019-05-03T04:52:17.133Z,100534.32
2019-05-03T04:54:56.265Z,100531.23
2019-05-03T04:57:39.762Z,100538.32
2019-05-03T05:00:05.633Z,100537.75
2019-05-03T05:02:39.069Z,100536.58
2019-05-03T05:05:12.199Z,100538.17
2019-05-03T05:07:45.701Z,100546.33
2019-05-03T05:10:18.932Z,100551.11
2019-05-03T05:12:52.011Z,100551.34
2019-05-03T05:15:26.370Z,100555.48
2019-05-03T05:18:15.739Z,100555.22
2019-05-03T05:20:52.677Z,100550.42
2019-05-03T05:23:25.389Z,100556.30
2019-05-03T05:26:08.558Z,100563.37
2019-05-03T05:28:51.725Z,100567.82
2019-05-03T05:31:25.481Z,100566.36
2019-05-03T05:33:58.491Z,100582.67
2019-05-03T05:36:31.495Z,100587.39
2019-05-03T05:39:05.223Z,100594.12
2019-05-03T05:41:37.941Z,100603.85
2019-05-03T05:44:10.684Z,100600.20
2019-05-03T05:47:01.917Z,100611.74
2019-05-03T05:49:51.176Z,100608.73
2019-05-03T05:52:25.957Z,100618.44
2019-05-03T05:55:26.904Z,100617.02
2019-05-03T05:58:08.017Z,100629.38
2019-05-03T06:00:45.767Z,100632.22
2019-05-03T06:03:18.322Z,100637.86
2019-05-03T06:05:51.116Z,100642.55
2019-05-03T06:08:35.429Z,100637.04
2019-05-03T06:11:17.696Z,100639.66
2019-05-03T06:14:05.039Z,100639.27
2019-05-03T06:16:45.145Z,100644.16
2019-05-03T06:19:51.515Z,100647.82
2019-05-03T06:22:31.563Z,100658.75
2019-05-03T06:25:17.848Z,100652.28
2019-05-03T06:27:50.490Z,100652.68
2019-05-03T06:30:45.712Z,100653.47
2019-05-03T06:33:18.739Z,100662.80
2019-05-03T06:35:51.297Z,100665.03
2019-05-03T06:38:24.452Z,100680.27
2019-05-03T06:40:57.571Z,100685.72
2019-05-03T06:43:30.561Z,100687.98
2019-05-03T06:46:05.285Z,100694.66
2019-05-03T06:48:40.525Z,100699.89
2019-05-03T06:51:19.177Z,100696.84
2019-05-03T06:53:50.627Z,100701.69
2019-05-03T06:56:24.997Z,100718.50
2019-05-03T06:58:56.601Z,100715.25
2019-05-03T07:01:35.411Z,100715.25
2019-05-03T07:04:19.155Z,100710.58
2019-05-03T07:07:13.241Z,100712.79
2019-05-03T07:09:55.743Z,100718.08
2019-05-03T07:12:31.320Z,100719.92
2019-05-03T07:15:05.794Z,100731.69
2019-05-03T07:17:38.994Z,100734.14
2019-05-03T07:20:11.516Z,100737.01
2019-05-03T07:22:44.464Z,100736.80
2019-05-03T07:25:16.914Z,100731.89
2019-05-03T07:27:49.826Z,100741.57
2019-05-03T07:30:24.594Z,100745.80
2019-05-03T07:33:02.019Z,100747.79
2019-05-03T07:35:35.339Z,100744.16
2019-05-03T07:38:08.004Z,100747.17
2019-05-03T07:40:40.974Z,100740.71
2019-05-03T07:43:14.855Z,100751.84
2019-05-03T07:45:47.307Z,100748.42
2019-05-03T07:48:19.990Z,100746.01
2019-05-03T07:50:54.537Z,100752.69
2019-05-03T07:53:26.969Z,100748.02
2019-05-03T07:56:27.385Z,100751.06
2019-05-03T07:59:04.192Z,100761.03
2019-05-03T08:01:41.242Z,100768.08
2019-05-03T08:04:15.391Z,100766.42
2019-05-03T08:06:48.251Z,100775.02
2019-05-03T08:09:21.191Z,100778.53
2019-05-03T08:11:54.692Z,100772.61
2019-05-03T08:14:31.796Z,100775.17
2019-05-03T08:17:05.406Z,100776.45
2019-05-03T08:19:38.016Z,100782.05
2019-05-03T08:22:11.290Z,100795.75
2019-05-03T08:24:44.851Z,100791.27
2019-05-03T08:27:17.351Z,100792.44
2019-05-03T08:29:49.877Z,100796.91
2019-05-03T08:32:39.439Z,100803.17
2019-05-03T08:35:35.565Z,100804.24
2019-05-03T08:38:08.610Z,100805.05
2019-05-03T08:40:47.536Z,100811.64
2019-05-03T08:43:20.301Z,100810.01
2019-05-03T08:45:55.250Z,100813.62
2019-05-03T08:48:27.573Z,100817.59
2019-05-03T08:51:00.316Z,100818.58
2019-05-03T08:53:35.594Z,100822.17
2019-05-03T08:56:07.805Z,100827.77
2019-05-03T08:58:40.353Z,100835.22
2019-05-03T09:01:14.788Z,100833.80
2019-05-03T09:03:47.479Z,100828.73
2019-05-03T09:06:20.349Z,100834.50
2019-05-03T09:08:56.855Z,100835.30
2019-05-03T09:11:34.057Z,100834.94
2019-05-03T09:14:05.027Z,100847.08
2019-05-03T09:16:37.560Z,100843.61
2019-05-03T09:19:10.280Z,100842.38
2019-05-03T09:21:42.997Z,100842.19
2019-05-03T09:24:15.574Z,100845.97
2019-05-03T09:26:48.176Z,100838.98
2019-05-03T09:29:20.602Z,100844.59
2019-05-03T09:31:55.288Z,100842.56
2019-05-03T09:34:27.222Z,100843.55
2019-05-03T09:37:00.008Z,100836.48
2019-05-03T09:39:32.683Z,100850.22
2019-05-03T09:42:05.328Z,100842.34
2019-05-03T09:44:37.875Z,100851.05
2019-05-03T09:47:10.749Z,100844.70
2019-05-03T09:49:45.206Z,100847.06
2019-05-03T09:52:18.259Z,100854.56
2019-05-03T09:54:54.648Z,100853.01
2019-05-03T09:57:26.813Z,100849.23
2019-05-03T10:00:00.257Z,100846.66
2019-05-03T10:02:34.997Z,100836.16
2019-05-03T10:05:07.713Z,100837.02
2019-05-03T10:07:41.339Z,100836.25
2019-05-03T10:10:15.417Z,100827.58
2019-05-03T10:12:48.391Z,100822.58
2019-05-03T10:15:44.992Z,100819.34
2019-05-03T10:18:17.865Z,100814.92
2019-05-03T10:20:50.835Z,100825.95
2019-05-03T10:23:44.931Z,100824.61
2019-05-03T10:26:17.002Z,100825.44
2019-05-03T10:28:49.527Z,100819.09
2019-05-03T10:31:25.844Z,100811.08
2019-05-03T10:34:05.771Z,100804.05
2019-05-03T10:36:38.186Z,100797.25
2019-05-03T10:39:11.231Z,100797.36
2019-05-03T10:41:45.320Z,100799.22
2019-05-03T10:44:18.129Z,100802.45
2019-05-03T10:46:50.612Z,100799.41
2019-05-03T10:49:24.495Z,100792.17
2019-05-03T10:52:01.933Z,100802.05
2019-05-03T10:54:35.862Z,100795.06
2019-05-03T10:57:15.775Z,100800.05
2019-05-03T10:59:48.376Z,100793.37
2019-05-03T11:02:34.942Z,100789.29
2019-05-03T11:05:08.088Z,100792.70
2019-05-03T11:07:40.833Z,100786.41
2019-05-03T11:10:14.717Z,100796.37
2019-05-03T11:12:47.450Z,100793.37
2019-05-03T11:15:20.258Z,100802.08
2019-05-03T11:17:54.798Z,100814.14
2019-05-03T11:20:45.299Z,100806.89
2019-05-03T11:23:18.643Z,100803.88
2019-05-03T11:25:51.249Z,100806.36
2019-05-03T11:28:26.486Z,100807.16
2019-05-03T11:31:02.444Z,100801.47
2019-05-03T11:33:37.756Z,100799.37
2019-05-03T11:36:31.856Z,100799.11
2019-05-03T11:39:05.631Z,100798.71
2019-05-03T11:41:40.433Z,100790.31
2019-05-03T11:44:29.961Z,100797.52
2019-05-03T11:47:02.697Z,100800.05
2019-05-03T11:49:35.610Z,100790.95
2019-05-03T11:52:08.864Z,100794.19
2019-05-03T11:54:41.894Z,100806.80
2019-05-03T11:57:21.456Z,100798.97
2019-05-03T11:59:54.827Z,100803.47
2019-05-03T12:02:44.904Z,100798.60
2019-05-03T12:05:24.497Z,100789.79
2019-05-03T12:07:57.672Z,100806.46
2019-05-03T12:10:46.996Z,100797.72
2019-05-03T12:13:13.033Z,100796.09
2019-05-03T12:15:46.008Z,100781.76
2019-05-03T12:18:19.275Z,100789.42
2019-05-03T12:20:52.601Z,100792.07
2019-05-03T12:23:26.358Z,100785.84
2019-05-03T12:26:00.610Z,100784.65
2019-05-03T12:28:35.247Z,100781.65
2019-05-03T12:31:08.685Z,100778.47
2019-05-03T12:33:41.467Z,100773.70
2019-05-03T12:36:15.531Z,100767.66
2019-05-03T12:38:49.003Z,100766.86
2019-05-03T12:41:21.586Z,100772.28
2019-05-03T12:43:55.159Z,100764.64
2019-05-03T12:46:27.948Z,100768.70
2019-05-03T12:49:00.833Z,100757.00
2019-05-03T12:51:34.533Z,100759.61
2019-05-03T12:54:07.439Z,100756.70
2019-05-03T12:56:39.920Z,100759.23
2019-05-03T12:59:31.224Z,100755.06
2019-05-03T13:02:15.370Z,100761.11
2019-05-03T13:04:48.267Z,100763.23
2019-05-03T13:07:32.089Z,100763.58
2019-05-03T13:10:05.263Z,100764.33
2019-05-03T13:12:49.742Z,100760.23
2019-05-03T13:15:14.443Z,100749.42
2019-05-03T13:17:46.906Z,100750.47
2019-05-03T13:20:19.920Z,100749.54
2019-05-03T13:22:52.846Z,100745.89
2019-05-03T13:25:25.918Z,100733.80
2019-05-03T13:27:58.555Z,100732.17
2019-05-03T13:30:31.146Z,100735.16
2019-05-03T13:33:05.794Z,100738.30
2019-05-03T13:35:38.501Z,100735.56
2019-05-03T13:38:16.897Z,100737.94
2019-05-03T13:40:50.968Z,100733.88
2019-05-03T13:43:23.467Z,100732.64
2019-05-03T13:45:57.987Z,100738.64
2019-05-03T13:48:41.659Z,100725.72
2019-05-03T13:51:05.236Z,100741.35
2019-05-03T13:53:38.303Z,100738.42
2019-05-03T13:56:11.131Z,100729.02
2019-05-03T13:58:44.604Z,100732.81
2019-05-03T14:01:18.079Z,100733.55
2019-05-03T14:03:50.929Z,100738.39
2019-05-03T14:06:24.604Z,100733.28
2019-05-03T14:08:57.444Z,100734.19
2019-05-03T14:11:30.073Z,100734.62
2019-05-03T14:14:04.708Z,100736.45
2019-05-03T14:16:37.538Z,100737.30
2019-05-03T14:19:15.483Z,100736.34
2019-05-03T14:21:54.644Z,100744.12
2019-05-03T14:24:27.059Z,100739.99
2019-05-03T14:27:00.580Z,100743.32
2019-05-03T14:29:34.753Z,100743.32
2019-05-03T14:32:07.572Z,100742.30
2019-05-03T14:34:40.038Z,100739.03
2019-05-03T14:37:13.017Z,100731.25
2019-05-03T14:39:46.912Z,100729.27
2019-05-03T14:42:19.369Z,100732.23
2019-05-03T14:44:51.849Z,100730.16
2019-05-03T14:47:25.244Z,100729.13
2019-05-03T14:49:57.961Z,100742.66
2019-05-03T14:52:30.312Z,100745.78
2019-05-03T14:55:10.378Z,100746.13
2019-05-03T14:57:48.364Z,100748.14
2019-05-03T15:00:34.600Z,100745.03
2019-05-03T15:03:09.647Z,100748.95
2019-05-03T15:05:43.718Z,100750.41
2019-05-03T15:08:16.482Z,100744.48
2019-05-03T15:10:49.752Z,100741.14
2019-05-03T15:13:22.378Z,100754.11
2019-05-03T15:15:55.441Z,100750.31
2019-05-03T15:18:28.352Z,100756.59
2019-05-03T15:21:02.163Z,100754.50
2019-05-03T15:23:35.374Z,100751.50
2019-05-03T15:26:08.422Z,100755.91
2019-05-03T15:28:41.186Z,100753.55
2019-05-03T15:31:13.601Z,100750.52
2019-05-03T15:33:47.920Z,100749.48
2019-05-03T15:36:21.340Z,100749.41
2019-05-03T15:38:55.227Z,100751.38
2019-05-03T15:41:28.405Z,100752.71
2019-05-03T15:44:14.628Z,100751.12
2019-05-03T15:46:52.047Z,100750.66
2019-05-03T15:49:27.531Z,100755.33
2019-05-03T15:51:59.635Z,100758.48
2019-05-03T15:54:32.691Z,100757.99
2019-05-03T15:57:05.432Z,100750.13
2019-05-03T15:59:37.945Z,100755.41
2019-05-03T16:02:10.826Z,100759.47
2019-05-03T16:04:44.804Z,100762.20
2019-05-03T16:07:17.767Z,100758.02
2019-05-03T16:09:50.516Z,100755.19
2019-05-03T16:12:23.126Z,100762.39
2019-05-03T16:14:56.015Z,100762.80
2019-05-03T16:17:29.310Z,100766.27
2019-05-03T16:20:02.272Z,100761.94
2019-05-03T16:22:34.832Z,100766.20
2019-05-03T16:25:10.252Z,100764.71
2019-05-03T16:28:01.634Z,100769.30
2019-05-03T16:30:48.671Z,100771.64
2019-05-03T16:33:27.269Z,100779.12
2019-05-03T16:35:55.787Z,100773.17
2019-05-03T16:38:28.335Z,100778.94
2019-05-03T16:41:01.191Z,100785.27
2019-05-03T16:43:34.861Z,100795.70
2019-05-03T16:46:07.569Z,100797.10
2019-05-03T16:48:40.163Z,100801.66
2019-05-03T16:51:15.181Z,100796.78
2019-05-03T16:53:47.506Z,100799.83
2019-05-03T16:56:20.152Z,100802.41
2019-05-03T16:58:52.859Z,100808.86
2019-05-03T17:01:25.263Z,100805.55
2019-05-03T17:04:20.556Z,100807.27
2019-05-03T17:07:05.729Z,100807.97
2019-05-03T17:09:51.370Z,100811.61
2019-05-03T17:12:27.439Z,100819.53
2019-05-03T17:15:00.166Z,100823.27
2019-05-03T17:17:34.487Z,100818.11
2019-05-03T17:20:10.738Z,100827.61
2019-05-03T17:22:45.032Z,100832.85
2019-05-03T17:25:20.910Z,100835.75
2019-05-03T17:27:54.302Z,100837.86
2019-05-03T17:30:33.798Z,100837.72
2019-05-03T17:33:01.291Z,100847.64
2019-05-03T17:35:34.634Z,100850.45
2019-05-03T17:38:07.377Z,100843.56
2019-05-03T17:41:10.928Z,100848.02
2019-05-03T17:43:48.272Z,100852.09
2019-05-03T17:46:20.745Z,100856.08
2019-05-03T17:48:54.742Z,100863.01
2019-05-03T17:51:45.611Z,100869.00
2019-05-03T17:54:35.725Z,100872.27
2019-05-03T17:57:20.579Z,100875.55
2019-05-03T17:59:58.562Z,100880.19
2019-05-03T18:02:38.790Z,100885.58
2019-05-03T18:05:19.343Z,100885.02
2019-05-03T18:08:26.158Z,100888.05
2019-05-03T18:11:06.321Z,100887.11
2019-05-03T18:13:39.130Z,100893.67
2019-05-03T18:16:11.748Z,100890.86
2019-05-03T18:18:45.444Z,100892.61
2019-05-03T18:21:18.357Z,100895.32
2019-05-03T18:23:50.898Z,100907.30
2019-05-03T18:26:25.550Z,100911.62
2019-05-03T18:29:02.111Z,100919.11
2019-05-03T18:31:35.070Z,100923.55
2019-05-03T18:34:19.091Z,100927.30
2019-05-03T18:36:45.032Z,100933.53
2019-05-03T18:39:17.715Z,100938.69
2019-05-03T18:41:50.685Z,100941.86
2019-05-03T18:44:39.191Z,100942.09
2019-05-03T18:47:16.129Z,100946.41
2019-05-03T18:49:48.895Z,100952.36
2019-05-03T18:52:21.922Z,100951.05
2019-05-03T18:54:55.212Z,100957.47
2019-05-03T18:57:27.994Z,100955.97
2019-05-03T19:00:00.819Z,100962.77
2019-05-03T19:02:33.627Z,100955.50
2019-05-03T19:05:08.078Z,100972.59
2019-05-03T19:07:54.624Z,100965.34
2019-05-03T19:10:33.227Z,100968.52
2019-05-03T19:13:19.716Z,100969.59
2019-05-03T19:15:52.579Z,100980.13
2019-05-03T19:18:36.290Z,100980.36
2019-05-03T19:21:09.199Z,100975.58
2019-05-03T19:23:44.671Z,100977.81
2019-05-03T19:26:17.192Z,100974.30
2019-05-03T19:28:49.987Z,100981.81
2019-05-03T19:31:25.003Z,100991.54
2019-05-03T19:33:57.480Z,100991.88
2019-05-03T19:36:30.019Z,100989.06
2019-05-03T19:39:02.466Z,100988.27
2019-05-03T19:41:35.488Z,100989.20
2019-05-03T19:44:08.943Z,100984.27
2019-05-03T19:46:42.134Z,100984.64
2019-05-03T19:49:14.552Z,100983.60
2019-05-03T19:51:47.122Z,100980.56
2019-05-03T19:54:19.900Z,100977.52
2019-05-03T19:56:52.257Z,100980.09
2019-05-03T19:59:41.969Z,100981.25
2019-05-03T20:02:27.766Z,100974.59
2019-05-03T20:05:18.931Z,100974.02
2019-05-03T20:08:22.294Z,100982.30
2019-05-03T20:11:14.884Z,100980.90
2019-05-03T20:13:48.812Z,100963.85
2019-05-03T20:16:21.505Z,100977.29
2019-05-03T20:18:55.564Z,100969.67
2019-05-03T20:21:28.649Z,100960.81
2019-05-03T20:24:02.434Z,100959.97
2019-05-03T20:26:35.367Z,100958.94
2019-05-03T20:29:07.895Z,100963.14
2019-05-03T20:31:40.290Z,100961.50
2019-05-03T20:34:12.756Z,100968.89
2019-05-03T20:36:45.433Z,100959.39
2019-05-03T20:39:18.340Z,100961.97
2019-05-03T20:41:50.818Z,100961.16
2019-05-03T20:44:42.265Z,100965.13
2019-05-03T20:47:19.626Z,100960.92
2019-05-03T20:50:09.508Z,100959.76
2019-05-03T20:52:41.913Z,100963.61
2019-05-03T20:55:15.732Z,100956.48
2019-05-03T20:57:48.552Z,100954.23
2019-05-03T21:00:25.628Z,100963.03
2019-05-03T21:02:58.159Z,100961.49
2019-05-03T21:05:33.161Z,100967.34
2019-05-03T21:08:06.749Z,100975.41
2019-05-03T21:10:39.325Z,100969.79
2019-05-03T21:13:11.881Z,100962.17
2019-05-03T21:16:06.102Z,100961.23
2019-05-03T21:18:51.435Z,100960.67
2019-05-03T21:21:45.656Z,100966.28
2019-05-03T21:24:35.566Z,100964.88
2019-05-03T21:27:08.300Z,100967.92
2019-05-03T21:29:52.084Z,100974.80
2019-05-03T21:32:25.218Z,100976.57
2019-05-03T21:34:57.730Z,100967.23
2019-05-03T21:37:30.489Z,100964.77
2019-05-03T21:40:05.034Z,100973.19
2019-05-03T21:42:37.756Z,100974.35
2019-05-03T21:45:11.956Z,100965.59
2019-05-03T21:48:09.922Z,100973.66
2019-05-03T21:50:44.615Z,100973.09
2019-05-03T21:53:21.749Z,100972.50
2019-05-03T21:55:54.173Z,100969.92
2019-05-03T21:58:26.652Z,100974.02
2019-05-03T22:01:05.065Z,100968.87
2019-05-03T22:03:37.869Z,100970.14
2019-05-03T22:06:10.328Z,100962.89
2019-05-03T22:08:45.351Z,100969.11
2019-05-03T22:11:17.365Z,100967.10
2019-05-03T22:13:51.737Z,100961.38
2019-05-03T22:16:41.187Z,100955.42
2019-05-03T22:19:16.349Z,100953.67
2019-05-03T22:21:55.277Z,100951.45
2019-05-03T22:24:33.703Z,100954.72
2019-05-03T22:27:15.358Z,100949.80
2019-05-03T22:29:47.989Z,100945.84
2019-05-03T22:32:20.389Z,100953.88
2019-05-03T22:34:52.888Z,100946.75
2019-05-03T22:37:25.373Z,100938.22
2019-05-03T22:39:57.946Z,100940.22
2019-05-03T22:42:30.393Z,100938.82
2019-05-03T22:45:04.671Z,100936.82
2019-05-03T22:47:37.916Z,100935.89
2019-05-03T22:50:10.641Z,100935.66
2019-05-03T22:52:42.980Z,100934.25
2019-05-03T22:55:16.665Z,100937.42
2019-05-03T22:57:49.429Z,100936.70
2019-05-03T23:00:22.477Z,100938.80
2019-05-03T23:02:54.912Z,100941.02
2019-05-03T23:05:27.539Z,100943.70
2019-05-03T23:08:00.210Z,100950.84
2019-05-03T23:10:34.772Z,100940.55
2019-05-03T23:13:07.404Z,100940.08
2019-05-03T23:15:39.913Z,100936.92
2019-05-03T23:18:12.473Z,100943.48
2019-05-03T23:20:55.549Z,100942.17
2019-05-03T23:23:45.573Z,100948.94
2019-05-03T23:26:18.246Z,100952.58
2019-05-03T23:28:50.686Z,100949.66
2019-05-03T23:31:25.108Z,100940.66
2019-05-03T23:33:58.000Z,100946.73
2019-05-03T23:36:33.463Z,100936.69
2019-05-03T23:39:05.323Z,100937.05
2019-05-03T23:41:37.589Z,100939.61
2019-05-03T23:44:10.163Z,100945.58
2019-05-03T23:46:54.582Z,100944.27
2019-05-03T23:49:27.334Z,100949.06
2019-05-03T23:52:04.479Z,100952.67
2019-05-03T23:54:37.092Z,100946.74
2019-05-03T23:57:10.064Z,100936.93
2019-05-03T23:59:44.859Z,100941.58
